Time;durP1;ratioP1;P1;durP2;ratioP2;P2;SDS_P1;SDS_P2;PMS_P1;PMS_P2;Temp;Humidity;BMP_temperature;BMP_pressure;BME280_temperature;BME280_humidity;BME280_pressure;Samples;Min_cycle;Max_cycle;Signal;HPM_P1;HPM_P2
2022/11/19 00:01:29;;;;;;;;;;;9.30;71.40;;;4.45;100.00;94753.13;4959027;28;20129;-57
2022/11/19 00:03:55;;;;;;;;;;;9.40;71.50;;;4.49;100.00;94759.50;4954676;28;20369;-55
2022/11/19 00:06:25;;;;;;;;;;;9.40;71.50;;;4.49;100.00;94744.47;4965771;28;19914;-55
2022/11/19 00:08:52;;;;;;;;;;;9.40;71.50;;;4.51;100.00;94747.69;4967681;28;19918;-57
2022/11/19 00:14:12;;;;;;;;;;;9.40;71.50;;;4.54;100.00;94739.25;4948788;28;20094;-55
2022/11/19 00:16:39;;;;;;;;;;;9.40;72.30;;;4.56;100.00;94746.94;4938716;28;19980;-57
2022/11/19 00:19:05;;;;;;;;;;;9.40;71.50;;;4.55;100.00;94753.25;4971536;28;19913;-57
2022/11/19 00:21:31;;;;;;;;;;;9.40;71.50;;;4.55;100.00;94747.97;4938236;28;20384;-55
2022/11/19 00:24:00;;;;;;;;;;;9.50;71.50;;;4.57;100.00;94753.78;4937676;28;19916;-57
2022/11/19 00:26:26;;;;;;;;;;;9.50;71.40;;;4.56;100.00;94752.19;4951017;28;19956;-57
2022/11/19 00:28:54;;;;;;;;;;;9.50;71.50;;;4.56;100.00;94750.34;4952540;28;20024;-56
2022/11/19 00:31:21;;;;;;;;;;;9.50;71.40;;;4.54;100.00;94744.53;4968132;28;19909;-55
2022/11/19 00:33:49;;;;;;;;;;;9.50;71.40;;;4.54;100.00;94747.16;4954557;28;19960;-52
2022/11/19 00:36:16;;;;;;;;;;;9.40;71.40;;;4.54;100.00;94741.09;4954578;28;19910;-56
2022/11/19 00:38:42;;;;;;;;;;;9.40;71.40;;;4.52;100.00;94741.34;4954719;28;19949;-55
2022/11/19 00:41:14;;;;;;;;;;;9.40;71.40;;;4.50;100.00;94737.38;4954145;28;19920;-57
2022/11/19 00:43:45;;;;;;;;;;;9.40;71.40;;;4.46;100.00;94742.34;4958866;28;19917;-51
2022/11/19 00:46:18;;;;;;;;;;;9.40;71.40;;;4.43;100.00;94744.66;4952481;28;19910;-57
2022/11/19 00:48:49;;;;;;;;;;;9.30;71.20;;;4.38;100.00;94738.28;4960827;28;20372;-54
2022/11/19 00:51:18;;;;;;;;;;;9.30;71.20;;;4.36;100.00;94745.66;4953903;28;20269;-54
2022/11/19 00:53:44;;;;;;;;;;;9.30;71.20;;;4.33;100.00;94745.34;4969074;28;19987;-57
2022/11/19 00:56:14;;;;;;;;;;;9.20;71.10;;;4.28;100.00;94750.56;4951280;28;19910;-53
2022/11/19 00:58:41;;;;;;;;;;;9.20;71.20;;;4.24;100.00;94741.53;4950667;28;20029;-55
2022/11/19 01:01:09;;;;;;;;;;;9.20;71.20;;;4.18;100.00;94746.75;4949453;28;19934;-55
2022/11/19 01:03:37;;;;;;;;;;;9.10;71.10;;;4.13;100.00;94751.94;4934984;28;19917;-57
2022/11/19 01:06:10;;;;;;;;;;;9.10;71.10;;;4.07;100.00;94752.91;4956813;28;20003;-54
2022/11/19 01:08:37;;;;;;;;;;;9.00;71.00;;;4.00;100.00;94749.66;4971567;28;19909;-55
2022/11/19 01:11:20;;;;;;;;;;;9.00;71.10;;;3.95;100.00;94760.16;4937521;28;19909;-54
2022/11/19 01:13:57;;;;;;;;;;;8.90;71.00;;;3.90;100.00;94760.88;4968752;28;19964;-56
2022/11/19 01:16:32;;;;;;;;;;;8.90;71.20;;;3.90;100.00;94760.06;4986237;28;20008;-57
2022/11/19 01:19:03;;;;;;;;;;;8.90;71.20;;;3.86;100.00;94761.59;4969359;28;19910;-57
2022/11/19 01:21:34;;;;;;;;;;;8.80;71.20;;;3.84;100.00;94759.19;4954117;28;19953;-56
2022/11/19 01:24:02;;;;;;;;;;;8.80;71.20;;;3.82;100.00;94766.53;4957292;28;20316;-56
2022/11/19 01:26:29;;;;;;;;;;;8.70;71.30;;;3.78;100.00;94760.16;4970699;28;19960;-54
2022/11/19 01:28:58;;;;;;;;;;;8.70;71.30;;;3.75;100.00;94767.75;4938868;28;19946;-56
2022/11/19 01:31:30;;;;;;;;;;;8.70;71.30;;;3.70;100.00;94768.50;4967446;28;19910;-57
2022/11/19 01:33:57;;;;;;;;;;;8.60;71.30;;;3.66;100.00;94777.91;4955072;28;19918;-54
2022/11/19 01:36:27;;;;;;;;;;;8.60;71.50;;;3.65;100.00;94776.31;4956735;28;19997;-57
2022/11/19 01:38:53;;;;;;;;;;;8.60;71.50;;;3.65;100.00;94769.19;4958173;28;19918;-55
2022/11/19 01:41:45;;;;;;;;;;;8.60;71.50;;;3.67;100.00;94779.50;4974336;28;19918;-54
2022/11/19 01:45:00;;;;;;;;;;;8.60;71.60;;;3.74;100.00;94779.34;4970505;28;19910;-56
2022/11/19 01:47:26;;;;;;;;;;;8.70;71.70;;;3.78;100.00;94783.09;4974716;28;21381;-52
2022/11/19 01:49:58;;;;;;;;;;;8.70;71.80;;;3.82;100.00;94782.34;4953597;28;20380;-57
2022/11/19 01:52:30;;;;;;;;;;;8.70;71.80;;;3.88;100.00;94780.59;4937731;28;20407;-55
2022/11/19 01:55:00;;;;;;;;;;;8.70;71.80;;;3.92;100.00;94785.16;4940102;28;20040;-54
2022/11/19 01:57:30;;;;;;;;;;;8.80;71.90;;;3.95;100.00;94789.13;4973382;28;19921;-57
2022/11/19 01:59:58;;;;;;;;;;;8.80;71.90;;;3.95;100.00;94783.88;4973714;28;19921;-57
2022/11/19 02:02:24;;;;;;;;;;;8.90;71.90;;;3.99;100.00;94792.09;4969564;28;20013;-55
2022/11/19 02:04:56;;;;;;;;;;;8.90;71.80;;;4.02;100.00;94792.41;4953869;28;20009;-57
2022/11/19 02:07:39;;;;;;;;;;;8.90;71.80;;;4.05;100.00;94793.75;4962726;28;19914;-57
2022/11/19 02:10:07;;;;;;;;;;;8.90;72.40;;;4.06;100.00;94795.34;4953694;28;19910;-57
2022/11/19 02:13:08;;;;;;;;;;;9.00;71.70;;;4.08;100.00;94791.44;4963165;28;20283;-57
2022/11/19 02:16:11;;;;;;;;;;;9.00;71.70;;;4.11;100.00;94792.78;4967075;28;20280;-57
2022/11/19 02:19:00;;;;;;;;;;;9.00;71.70;;;4.13;100.00;94788.06;4938662;28;19910;-57
2022/11/19 02:22:38;;;;;;;;;;;9.00;71.70;;;4.14;100.00;94795.72;4953458;28;19913;-55
2022/11/19 02:25:50;;;;;;;;;;;9.10;71.80;;;4.21;100.00;94792.13;4972565;28;20265;-56
2022/11/19 02:28:58;;;;;;;;;;;9.10;71.80;;;4.28;100.00;94790.09;4973760;28;19988;-55
2022/11/19 02:32:13;;;;;;;;;;;9.10;72.00;;;4.32;100.00;94789.34;4972589;28;19914;-57
2022/11/19 02:34:56;;;;;;;;;;;9.10;72.00;;;4.36;100.00;94793.13;4973751;28;19914;-54
2022/11/19 02:37:42;;;;;;;;;;;9.20;72.10;;;4.39;100.00;94790.00;4938306;28;20304;-54
2022/11/19 02:40:32;;;;;;;;;;;9.20;72.00;;;4.40;100.00;94802.13;4948500;28;19917;-57
2022/11/19 02:43:27;;;;;;;;;;;9.20;71.90;;;4.39;100.00;94800.53;4965642;28;19918;-56
2022/11/19 02:46:05;;;;;;;;;;;9.20;71.90;;;4.40;100.00;94798.69;4940896;28;19917;-57
2022/11/19 02:48:40;;;;;;;;;;;9.20;71.90;;;4.40;100.00;94788.94;4950391;28;19960;-56
2022/11/19 02:51:08;;;;;;;;;;;9.30;71.90;;;4.41;100.00;94797.66;4955794;28;19910;-56
2022/11/19 02:53:34;;;;;;;;;;;9.30;71.90;;;4.40;100.00;94802.13;4940435;28;20320;-53
2022/11/19 02:56:54;;;;;;;;;;;9.30;71.80;;;4.39;100.00;94800.53;4940154;28;20005;-57
2022/11/19 03:05:46;;;;;;;;;;;9.20;71.60;;;4.28;100.00;94796.16;4967026;28;19921;-53
2022/11/19 03:08:18;;;;;;;;;;;9.20;71.60;;;4.25;100.00;94793.22;4969472;28;19910;-55
2022/11/19 03:11:09;;;;;;;;;;;9.20;71.60;;;4.20;100.00;94793.97;4948794;28;19916;-52
2022/11/19 03:17:09;;;;;;;;;;;9.20;71.60;;;4.14;100.00;94798.38;4967082;28;20076;-55
2022/11/19 03:20:03;;;;;;;;;;;9.10;71.60;;;4.13;100.00;94793.31;4962712;28;19917;-51
2022/11/19 03:23:04;;;;;;;;;;;9.00;71.60;;;4.07;100.00;94794.28;4964077;28;19910;-54
2022/11/19 03:25:43;;;;;;;;;;;9.00;71.60;;;4.05;100.00;94791.91;4957907;28;19910;-57
2022/11/19 03:28:17;;;;;;;;;;;8.90;71.50;;;4.00;100.00;94791.03;4952256;28;20307;-55
2022/11/19 03:30:48;;;;;;;;;;;8.90;71.50;;;3.94;100.00;94795.44;4966901;28;19925;-55
2022/11/19 03:33:32;;;;;;;;;;;8.90;71.40;;;3.86;100.00;94787.97;4966647;28;19940;-57
2022/11/19 03:36:17;;;;;;;;;;;8.80;71.30;;;3.78;100.00;94783.88;4945727;28;19910;-56
2022/11/19 03:38:51;;;;;;;;;;;8.70;71.20;;;3.77;100.00;94792.81;4963279;28;19914;-57
2022/11/19 03:41:21;;;;;;;;;;;8.70;71.30;;;3.70;100.00;94787.72;4967368;28;20012;-54
2022/11/19 03:44:23;;;;;;;;;;;8.60;71.30;;;3.65;100.00;94792.09;4963022;28;20052;-54
2022/11/19 03:47:10;;;;;;;;;;;8.50;71.30;;;3.57;100.00;94790.66;4951929;28;19910;-54
2022/11/19 03:49:43;;;;;;;;;;;8.50;71.30;;;3.51;100.00;94780.28;4963731;28;20403;-52
2022/11/19 03:52:16;;;;;;;;;;;8.40;71.30;;;3.40;100.00;94779.34;4976684;28;19916;-51
2022/11/19 03:54:48;;;;;;;;;;;8.30;71.20;;;3.33;100.00;94784.75;4929571;28;19910;-54
2022/11/19 03:57:22;;;;;;;;;;;8.30;71.20;;;3.24;100.00;94784.34;4971277;28;19909;-55
2022/11/19 03:59:48;;;;;;;;;;;8.20;71.30;;;3.23;100.00;94788.03;4993291;23;19936;-49
2022/11/19 04:02:22;;;;;;;;;;;8.10;71.30;;;3.22;100.00;94788.25;4992525;28;19913;-50
2022/11/19 04:04:55;;;;;;;;;;;8.10;71.40;;;3.16;100.00;94797.88;4994479;28;19944;-49
2022/11/19 04:07:22;;;;;;;;;;;8.00;71.30;;;3.07;100.00;94796.69;4974614;28;19910;-49
2022/11/19 04:09:51;;;;;;;;;;;7.90;71.30;;;2.94;100.00;94797.75;4981503;28;19987;-49
2022/11/19 04:12:24;;;;;;;;;;;7.80;71.30;;;2.91;100.00;94797.44;4949863;28;19949;-49
2022/11/19 04:14:56;;;;;;;;;;;7.80;71.30;;;2.82;100.00;94794.41;4987039;28;20005;-50
2022/11/19 04:17:27;;;;;;;;;;;7.70;71.30;;;2.77;100.00;94792.47;4990700;28;19917;-49
2022/11/19 04:19:52;;;;;;;;;;;7.70;71.50;;;2.74;100.00;94794.78;4987298;28;19914;-50
2022/11/19 04:22:27;;;;;;;;;;;7.60;71.50;;;2.66;100.00;94792.50;4990591;28;20323;-49
2022/11/19 04:24:52;;;;;;;;;;;7.60;71.50;;;2.55;100.00;94792.31;4981819;28;19997;-54
2022/11/19 04:27:18;;;;;;;;;;;7.50;71.60;;;2.52;100.00;94792.78;4983497;28;19948;-49
2022/11/19 04:29:50;;;;;;;;;;;7.50;71.70;;;2.55;100.00;94786.25;4967511;28;20316;-52
2022/11/19 04:32:17;;;;;;;;;;;7.50;71.90;;;2.55;100.00;94794.94;4983941;28;19956;-49
2022/11/19 04:34:45;;;;;;;;;;;7.50;72.00;;;2.60;100.00;94799.50;4990336;28;19941;-51
2022/11/19 04:37:11;;;;;;;;;;;7.50;72.10;;;2.63;100.00;94800.84;4967313;28;19910;-50
2022/11/19 04:39:36;;;;;;;;;;;7.60;72.20;;;2.67;100.00;94794.13;4989679;28;19916;-49
2022/11/19 04:42:02;;;;;;;;;;;7.60;72.20;;;2.75;100.00;94804.25;4981428;28;20432;-53
2022/11/19 04:44:31;;;;;;;;;;;7.60;72.30;;;2.83;100.00;94800.47;4990528;28;19910;-50
2022/11/19 04:46:58;;;;;;;;;;;7.60;72.30;;;2.87;100.00;94805.00;4957142;28;20284;-49
2022/11/19 04:49:27;;;;;;;;;;;7.70;72.40;;;2.93;100.00;94804.06;4981002;28;19945;-49
2022/11/19 04:51:59;;;;;;;;;;;7.70;72.40;;;2.99;100.00;94804.97;4990722;28;19913;-49
2022/11/19 04:54:33;;;;;;;;;;;7.80;72.50;;;3.04;100.00;94802.44;4953903;28;19949;-49
2022/11/19 04:57:01;;;;;;;;;;;7.80;72.50;;;3.11;100.00;94805.72;4969829;28;19915;-49
2022/11/19 04:59:27;;;;;;;;;;;7.90;72.60;;;3.16;100.00;94802.34;4991623;28;20290;-50
2022/11/19 05:02:02;;;;;;;;;;;7.90;72.60;;;3.25;100.00;94800.94;4984452;28;20008;-51
2022/11/19 05:04:33;;;;;;;;;;;8.00;72.60;;;3.29;100.00;94801.25;4990116;28;19916;-53
2022/11/19 05:06:58;;;;;;;;;;;8.10;72.70;;;3.32;100.00;94806.88;4962940;28;20311;-50
2022/11/19 05:09:29;;;;;;;;;;;8.20;72.60;;;3.37;100.00;94803.50;4982160;28;19915;-51
2022/11/19 05:12:01;;;;;;;;;;;8.20;72.50;;;3.39;100.00;94802.25;4950642;28;19921;-51
2022/11/19 05:14:26;;;;;;;;;;;8.20;72.40;;;3.40;100.00;94797.78;4983604;28;19967;-52
2022/11/19 05:16:58;;;;;;;;;;;8.20;72.40;;;3.43;100.00;94798.09;4990323;28;20400;-49
2022/11/19 05:19:27;;;;;;;;;;;8.20;72.30;;;3.45;100.00;94795.22;4987632;28;19920;-50
2022/11/19 05:21:55;;;;;;;;;;;8.30;72.30;;;3.45;100.00;94789.97;4990753;28;19931;-49
2022/11/19 05:24:36;;;;;;;;;;;8.30;72.20;;;3.46;100.00;94796.81;4984102;28;20772;-49
2022/11/19 05:27:02;;;;;;;;;;;8.30;72.10;;;3.40;100.00;94798.56;4973980;28;19909;-51
2022/11/19 05:29:30;;;;;;;;;;;8.20;72.00;;;3.34;100.00;94798.72;4971346;28;19909;-56
2022/11/19 05:32:02;;;;;;;;;;;8.30;71.90;;;3.25;100.00;94790.41;4978133;28;19976;-49
2022/11/19 05:34:31;;;;;;;;;;;8.20;71.80;;;3.17;100.00;94793.44;4989425;28;19962;-50
2022/11/19 05:37:03;;;;;;;;;;;8.10;71.60;;;3.09;100.00;94791.19;4987854;28;19952;-49
2022/11/19 05:39:28;;;;;;;;;;;8.10;71.50;;;2.98;100.00;94791.00;4987507;28;19910;-56
2022/11/19 05:41:54;;;;;;;;;;;8.00;71.40;;;2.85;100.00;94786.06;4971174;28;19917;-55
2022/11/19 05:44:26;;;;;;;;;;;7.90;71.40;;;2.77;100.00;94786.41;4988668;28;19932;-54
2022/11/19 05:46:52;;;;;;;;;;;7.80;71.40;;;2.77;100.00;94781.16;4968256;28;19921;-55
2022/11/19 05:49:27;;;;;;;;;;;7.70;71.40;;;2.70;100.00;94797.06;4944307;28;20376;-55
2022/11/19 05:51:55;;;;;;;;;;;7.60;71.50;;;2.64;100.00;94797.22;4989382;28;19964;-53
2022/11/19 05:54:22;;;;;;;;;;;7.60;71.50;;;2.54;100.00;94803.06;4983691;28;20366;-55
2022/11/19 05:56:47;;;;;;;;;;;7.50;71.50;;;2.47;100.00;94803.19;4951246;29;19960;-54
2022/11/19 05:59:14;;;;;;;;;;;7.40;71.50;;;2.41;100.00;94805.94;4951733;28;19958;-55
2022/11/19 06:01:40;;;;;;;;;;;7.30;71.50;;;2.34;100.00;94810.53;4958269;28;19965;-55
2022/11/19 06:04:05;;;;;;;;;;;7.30;71.50;;;2.29;100.00;94814.66;4952561;28;19914;-55
2022/11/19 06:06:31;;;;;;;;;;;7.20;71.60;;;2.25;100.00;94810.09;4963046;28;19910;-55
2022/11/19 06:09:07;;;;;;;;;;;7.20;71.60;;;2.16;100.00;94814.88;4951735;28;19910;-55
2022/11/19 06:11:47;;;;;;;;;;;7.10;71.60;;;2.09;100.00;94807.13;4921934;28;19984;-54
2022/11/19 06:14:14;;;;;;;;;;;7.10;71.60;;;1.99;100.00;94817.44;4940624;28;19928;-55
2022/11/19 06:16:40;;;;;;;;;;;7.00;71.70;;;1.93;100.00;94818.34;4966837;28;19914;-51
2022/11/19 06:19:05;;;;;;;;;;;6.90;72.50;;;1.89;100.00;94816.41;4949436;28;19910;-52
2022/11/19 06:21:31;;;;;;;;;;;6.90;71.90;;;1.91;100.00;94823.00;4974664;28;19953;-53
2022/11/19 06:23:57;;;;;;;;;;;6.80;72.10;;;1.94;100.00;94825.19;4940936;28;19913;-51
2022/11/19 06:26:29;;;;;;;;;;;6.80;72.10;;;1.97;100.00;94827.34;4941669;28;19946;-53
2022/11/19 06:28:55;;;;;;;;;;;6.90;72.20;;;1.96;100.00;94823.13;4954250;28;20368;-52
2022/11/19 06:31:22;;;;;;;;;;;6.90;72.10;;;1.94;100.00;94825.19;4949918;28;19914;-55
2022/11/19 06:33:48;;;;;;;;;;;6.80;72.00;;;1.91;100.00;94828.25;4955507;28;20015;-54
2022/11/19 06:36:17;;;;;;;;;;;6.80;72.00;;;1.88;100.00;94833.19;4922393;28;19910;-55
2022/11/19 06:38:43;;;;;;;;;;;6.80;72.00;;;1.85;100.00;94842.34;4955193;28;19957;-55
2022/11/19 06:41:08;;;;;;;;;;;6.80;72.10;;;1.84;100.00;94835.47;4954785;28;20356;-55
2022/11/19 06:43:34;;;;;;;;;;;6.80;72.10;;;1.86;100.00;94843.94;4941510;28;19921;-53
2022/11/19 06:46:00;;;;;;;;;;;6.80;72.10;;;1.85;100.00;94845.75;4934296;28;19916;-53
2022/11/19 06:48:28;;;;;;;;;;;6.80;72.20;;;1.89;100.00;94850.56;4963352;28;19914;-53
2022/11/19 06:50:55;;;;;;;;;;;6.80;72.20;;;1.88;100.00;94841.88;4955272;28;19968;-55
2022/11/19 06:53:23;;;;;;;;;;;6.80;72.20;;;1.88;100.00;94862.06;4948778;28;20004;-51
2022/11/19 06:55:56;;;;;;;;;;;6.80;72.30;;;1.92;100.00;94868.50;4949643;28;20001;-54
2022/11/19 06:58:26;;;;;;;;;;;6.80;72.30;;;1.96;100.00;94870.41;4933068;29;19922;-55
2022/11/19 07:00:55;;;;;;;;;;;6.90;72.40;;;2.02;100.00;94879.22;4938568;28;19914;-53
2022/11/19 07:03:22;;;;;;;;;;;6.90;72.40;;;2.07;100.00;94872.25;4951706;28;19913;-51
2022/11/19 07:05:53;;;;;;;;;;;7.00;72.40;;;2.16;100.00;94879.78;4952902;28;19916;-54
2022/11/19 07:08:19;;;;;;;;;;;7.10;72.50;;;2.27;100.00;94882.41;4951780;28;19945;-54
2022/11/19 07:10:45;;;;;;;;;;;7.20;72.60;;;2.36;100.00;94888.13;4968363;28;19914;-50
2022/11/19 07:13:10;;;;;;;;;;;7.30;72.60;;;2.43;100.00;94891.44;4946746;28;19933;-55
2022/11/19 07:15:36;;;;;;;;;;;7.40;72.60;;;2.52;100.00;94897.94;4943749;28;19910;-54
2022/11/19 07:18:02;;;;;;;;;;;7.40;72.50;;;2.61;100.00;94900.22;4923380;29;19921;-51
2022/11/19 07:20:30;;;;;;;;;;;7.60;72.60;;;2.70;100.00;94904.09;4948339;28;20369;-52
2022/11/19 07:23:02;;;;;;;;;;;7.70;72.60;;;2.78;100.00;94903.72;4954438;28;19918;-53
2022/11/19 07:25:28;;;;;;;;;;;7.70;72.50;;;2.85;100.00;94901.78;4962385;28;19916;-52
2022/11/19 07:27:54;;;;;;;;;;;7.80;72.50;;;2.93;100.00;94908.50;4943761;28;20513;-53
2022/11/19 07:30:27;;;;;;;;;;;7.90;72.50;;;3.02;100.00;94901.84;4950295;28;19941;-55
2022/11/19 07:32:53;;;;;;;;;;;8.00;72.50;;;3.11;100.00;94907.56;4936265;28;19925;-54
2022/11/19 07:35:19;;;;;;;;;;;8.20;72.50;;;3.22;100.00;94907.50;4934015;29;19914;-55
2022/11/19 07:37:48;;;;;;;;;;;8.30;72.50;;;3.32;100.00;94903.44;4933783;28;19989;-52
2022/11/19 07:40:15;;;;;;;;;;;8.40;72.50;;;3.40;100.00;94911.78;4933348;29;19915;-55
2022/11/19 07:42:51;;;;;;;;;;;8.50;72.40;;;3.51;100.00;94909.31;4937356;28;19994;-52
2022/11/19 07:45:21;;;;;;;;;;;8.60;72.30;;;3.63;100.00;94917.97;4950338;28;19937;-52
2022/11/19 07:47:48;;;;;;;;;;;8.80;72.30;;;3.72;100.00;94919.19;4945716;28;20030;-52
2022/11/19 07:50:17;;;;;;;;;;;8.90;72.30;;;3.83;100.00;94918.31;4958095;28;19976;-54
2022/11/19 07:52:43;;;;;;;;;;;9.00;72.20;;;3.96;100.00;94925.13;4953101;28;19918;-53
2022/11/19 07:55:12;;;;;;;;;;;9.10;72.20;;;4.11;100.00;94917.47;4951149;28;19964;-54
2022/11/19 07:57:46;;;;;;;;;;;9.30;72.30;;;4.30;100.00;94925.13;4952868;28;20009;-55
2022/11/19 08:00:13;;;;;;;;;;;9.60;72.30;;;4.48;100.00;94927.50;4951154;28;19933;-55
2022/11/19 08:02:39;;;;;;;;;;;9.80;72.20;;;4.67;100.00;94921.94;4979416;28;19909;-53
2022/11/19 08:05:07;;;;;;;;;;;10.00;72.10;;;4.84;100.00;94917.44;4972995;28;19916;-55
2022/11/19 08:07:35;;;;;;;;;;;10.30;72.00;;;5.00;100.00;94921.06;4979078;28;19914;-54
2022/11/19 08:10:01;;;;;;;;;;;10.50;71.90;;;5.07;100.00;94916.38;4971477;28;20052;-51
2022/11/19 08:12:29;;;;;;;;;;;10.70;71.70;;;5.06;100.00;94923.53;4963855;28;20051;-50
2022/11/19 08:14:55;;;;;;;;;;;10.80;71.50;;;5.15;100.00;94926.53;4970655;28;19916;-52
2022/11/19 08:20:06;;;;;;;;;;;11.00;71.10;;;5.38;100.00;94928.09;4970422;28;20024;-54
2022/11/19 08:22:35;;;;;;;;;;;11.30;71.10;;;5.47;100.00;94931.91;4972722;28;19917;-50
2022/11/19 08:25:03;;;;;;;;;;;11.40;70.90;;;5.66;100.00;94931.56;4979632;28;19917;-50
2022/11/19 08:27:32;;;;;;;;;;;11.60;70.90;;;5.81;100.00;94923.78;4971583;28;19992;-53
2022/11/19 08:30:07;;;;;;;;;;;11.80;70.70;;;5.93;100.00;94928.97;4964660;28;19921;-54
2022/11/19 08:32:36;;;;;;;;;;;12.00;70.60;;;5.98;100.00;94929.78;4951814;28;20024;-51
2022/11/19 08:35:10;;;;;;;;;;;12.10;70.40;;;5.96;100.00;94929.25;4971281;28;19909;-54
2022/11/19 08:37:36;;;;;;;;;;;12.20;70.30;;;6.12;100.00;94935.47;4970122;28;20371;-55
2022/11/19 08:40:02;;;;;;;;;;;12.20;70.20;;;6.21;100.00;94936.59;4986325;28;19910;-56
2022/11/19 08:45:18;;;;;;;;;;;12.40;70.10;;;6.19;99.81;94930.75;4971606;28;19944;-54
2022/11/19 08:47:43;;;;;;;;;;;12.50;69.90;;;6.39;100.00;94935.44;4969910;28;20003;-53
2022/11/19 08:50:09;;;;;;;;;;;12.60;69.80;;;6.40;98.22;94934.38;4970035;28;20355;-53
2022/11/19 08:52:36;;;;;;;;;;;12.80;69.70;;;6.62;97.60;94934.25;4971629;28;20489;-55
2022/11/19 08:55:02;;;;;;;;;;;13.20;69.50;;;7.01;93.20;94933.94;4969140;28;20005;-53
2022/11/19 08:57:31;;;;;;;;;;;13.70;69.20;;;7.47;92.94;94935.97;4970728;28;19910;-54
2022/11/19 09:00:03;;;;;;;;;;;14.30;68.80;;;7.93;92.88;94933.41;4984841;28;19926;-53
2022/11/19 09:02:29;;;;;;;;;;;14.80;68.60;;;8.29;90.35;94929.75;4979306;28;19941;-52
2022/11/19 09:05:01;;;;;;;;;;;15.30;68.60;;;8.53;85.51;94934.56;4991238;28;19955;-52
2022/11/19 09:07:27;;;;;;;;;;;15.70;68.30;;;8.72;85.19;94934.78;4943864;28;19921;-54
2022/11/19 09:09:59;;;;;;;;;;;15.90;67.60;;;8.96;85.71;94933.16;4973247;28;19959;-55
2022/11/19 09:12:31;;;;;;;;;;;16.00;67.30;;;9.27;82.72;94935.69;4983126;28;19918;-52
2022/11/19 09:14:56;;;;;;;;;;;16.20;67.20;;;9.61;80.75;94943.00;4987657;28;19917;-51
2022/11/19 09:17:31;;;;;;;;;;;16.60;66.90;;;9.83;78.76;94937.31;4991071;28;20394;-54
2022/11/19 09:19:57;;;;;;;;;;;16.90;66.40;;;9.95;78.37;94943.88;4987500;28;19913;-54
2022/11/19 09:22:32;;;;;;;;;;;17.20;65.80;;;10.29;73.82;94947.69;4989935;28;19913;-52
2022/11/19 09:24:58;;;;;;;;;;;17.50;65.60;;;10.16;71.60;94952.53;4966183;28;20284;-52
2022/11/19 09:27:26;;;;;;;;;;;17.50;65.10;;;10.35;73.38;94947.38;4957601;28;19909;-53
2022/11/19 09:29:52;;;;;;;;;;;17.60;64.90;;;10.19;71.72;94951.97;4969645;28;19917;-54
2022/11/19 09:32:34;;;;;;;;;;;17.60;64.60;;;10.20;70.10;94950.91;4951639;28;19910;-52
2022/11/19 09:35:06;;;;;;;;;;;17.70;64.20;;;10.40;69.37;94951.84;4949561;28;19916;-55
2022/11/19 09:37:33;;;;;;;;;;;17.80;64.10;;;10.16;71.15;94949.88;4971253;28;20260;-52
2022/11/19 09:39:59;;;;;;;;;;;17.60;63.60;;;9.83;70.51;94950.59;4976759;28;19944;-55
2022/11/19 09:43:03;;;;;;;;;;;17.30;63.50;;;9.83;72.22;94958.59;4987865;28;19909;-52
2022/11/19 09:45:54;;;;;;;;;;;17.00;63.30;;;9.80;72.62;94951.16;4934440;29;19911;-51
2022/11/19 09:48:36;;;;;;;;;;;16.80;63.70;;;9.78;72.35;94954.09;4924286;28;19916;-56
2022/11/19 09:51:28;;;;;;;;;;;16.50;63.70;;;9.89;72.54;94954.81;4993359;28;19916;-54
2022/11/19 09:54:06;;;;;;;;;;;16.50;63.90;;;9.76;72.22;94953.56;4990391;28;19967;-56
2022/11/19 09:56:41;;;;;;;;;;;16.40;64.00;;;9.70;71.89;94959.97;4969267;28;20001;-52
2022/11/19 09:59:38;;;;;;;;;;;16.30;64.10;;;9.71;71.50;94961.56;4996683;23;19929;-52
2022/11/19 10:02:26;;;;;;;;;;;16.20;64.10;;;9.86;73.32;94966.00;4970566;28;20339;-52
2022/11/19 10:04:53;;;;;;;;;;;16.30;64.10;;;9.83;71.31;94956.72;4996287;28;19913;-52
2022/11/19 10:07:44;;;;;;;;;;;16.60;64.10;;;9.95;72.80;94957.19;4982120;28;19913;-50
2022/11/19 10:11:07;;;;;;;;;;;16.70;63.70;;;10.13;72.25;94957.63;4992510;28;19956;-50
2022/11/19 10:14:27;;;;;;;;;;;17.00;63.80;;;10.20;72.24;94948.22;4940864;28;20048;-51
2022/11/19 10:17:30;;;;;;;;;;;17.10;63.50;;;10.35;69.12;94955.34;4994270;28;20005;-52
2022/11/19 10:20:12;;;;;;;;;;;17.10;63.20;;;10.41;65.93;94946.25;4991083;28;20000;-50
2022/11/19 10:22:55;;;;;;;;;;;17.50;62.90;;;10.62;68.83;94938.06;4976798;28;19963;-51
2022/11/19 10:25:31;;;;;;;;;;;17.80;62.30;;;10.67;68.67;94939.91;4988193;28;20083;-49
2022/11/19 10:28:37;;;;;;;;;;;17.70;62.00;;;10.51;67.73;94948.03;4961022;28;19917;-54
2022/11/19 10:31:19;;;;;;;;;;;17.60;61.70;;;10.20;66.70;94942.91;4965226;28;20012;-51
2022/11/19 10:33:58;;;;;;;;;;;17.30;61.40;;;10.05;67.35;94935.03;4959862;28;19914;-50
2022/11/19 10:36:43;;;;;;;;;;;17.00;61.30;;;9.94;68.41;94931.66;4966574;28;19910;-52
2022/11/19 10:39:27;;;;;;;;;;;16.70;61.20;;;9.76;69.46;94934.16;4968454;28;20318;-49
2022/11/19 10:42:37;;;;;;;;;;;16.50;61.10;;;9.54;70.39;94930.00;4975848;28;19913;-53
2022/11/19 10:45:34;;;;;;;;;;;16.20;61.10;;;9.29;70.39;94930.13;4978816;28;19910;-53
2022/11/19 10:48:08;;;;;;;;;;;15.90;60.90;;;9.14;70.38;94937.06;4958561;28;19918;-49
2022/11/19 10:50:35;;;;;;;;;;;15.60;60.90;;;8.83;70.85;94927.59;4962546;28;19916;-52
2022/11/19 10:53:35;;;;;;;;;;;15.30;60.70;;;8.82;71.00;94924.16;4992302;28;19924;-50
2022/11/19 10:56:22;;;;;;;;;;;15.10;60.80;;;8.57;72.14;94931.09;4991763;28;19918;-54
2022/11/19 10:58:55;;;;;;;;;;;14.80;61.00;;;8.55;72.99;94922.63;4976156;28;19925;-52
2022/11/19 11:01:37;;;;;;;;;;;14.60;61.10;;;8.29;73.33;94916.47;4962817;28;19925;-49
2022/11/19 11:04:26;;;;;;;;;;;14.40;61.40;;;8.31;74.78;94913.56;4989458;28;19913;-51
2022/11/19 11:07:01;;;;;;;;;;;14.20;61.60;;;8.32;75.25;94912.50;4962916;28;20037;-51
2022/11/19 11:09:41;;;;;;;;;;;14.20;61.80;;;8.41;75.51;94913.59;4976352;28;19952;-51
2022/11/19 11:15:25;;;;;;;;;;;14.90;62.30;;;9.20;73.29;94906.75;4989383;28;19923;-52
2022/11/19 11:18:11;;;;;;;;;;;15.60;62.60;;;9.73;70.82;94906.25;4989556;28;19963;-51
2022/11/19 11:20:51;;;;;;;;;;;16.30;62.60;;;9.64;68.90;94907.88;4950766;28;19909;-51
2022/11/19 11:23:26;;;;;;;;;;;16.70;62.00;;;9.74;68.86;94905.16;4991880;28;20294;-52
2022/11/19 11:26:09;;;;;;;;;;;16.70;61.00;;;9.68;68.88;94901.75;4984237;28;19927;-49
2022/11/19 11:28:55;;;;;;;;;;;16.90;60.30;;;9.80;68.96;94897.94;4975804;28;19909;-54
2022/11/19 11:31:43;;;;;;;;;;;16.90;59.70;;;10.01;68.64;94894.09;4962157;28;20377;-55
2022/11/19 11:34:24;;;;;;;;;;;17.10;59.40;;;10.16;69.11;94899.31;4975479;28;19913;-53
2022/11/19 11:36:52;;;;;;;;;;;17.20;59.40;;;10.08;68.43;94894.56;4977766;28;19919;-53
2022/11/19 11:39:36;;;;;;;;;;;17.30;59.20;;;10.20;68.45;94896.88;4975698;28;20376;-49
2022/11/19 11:42:03;;;;;;;;;;;17.50;58.80;;;10.47;67.44;94891.09;4956402;28;19932;-52
2022/11/19 11:44:48;;;;;;;;;;;17.70;58.80;;;10.57;66.29;94890.22;4969790;28;19909;-52
2022/11/19 11:47:38;;;;;;;;;;;18.00;58.90;;;10.39;65.27;94891.69;4973486;28;19917;-51
2022/11/19 11:50:18;;;;;;;;;;;17.70;58.30;;;10.21;65.91;94885.16;4935518;28;19921;-50
2022/11/19 11:52:56;;;;;;;;;;;17.50;58.00;;;10.51;66.25;94884.13;4930129;28;19960;-52
2022/11/19 11:55:25;;;;;;;;;;;17.80;58.10;;;10.68;64.54;94874.91;4955083;28;20374;-51
2022/11/19 11:57:56;;;;;;;;;;;18.20;58.00;;;10.84;66.28;94874.50;4953057;28;19913;-52
2022/11/19 12:00:36;;;;;;;;;;;18.50;57.80;;;10.95;65.46;94874.38;4935938;28;20696;-53
2022/11/19 12:03:08;;;;;;;;;;;18.50;57.80;;;10.70;65.27;94875.44;4944951;28;19910;-56
2022/11/19 12:05:52;;;;;;;;;;;18.30;57.60;;;10.85;64.85;94880.59;4949409;28;20454;-49
2022/11/19 12:08:56;;;;;;;;;;;18.30;58.10;;;10.72;65.18;94874.09;4965001;28;20257;-48
2022/11/19 12:12:02;;;;;;;;;;;18.20;57.40;;;10.66;64.76;94883.19;4943130;28;19914;-49
2022/11/19 12:15:14;;;;;;;;;;;18.00;57.30;;;10.44;65.81;94886.34;4943859;28;19965;-47
2022/11/19 12:17:59;;;;;;;;;;;17.60;57.20;;;10.21;66.21;94879.81;4935803;28;19921;-57
2022/11/19 12:21:22;;;;;;;;;;;17.20;57.10;;;10.18;67.41;94880.38;4955583;28;20008;-50